createdAt,value
2023-01-30T00:00:07.514Z,94.38
2023-01-30T00:02:40.065Z,94.61
2023-01-30T00:05:06.905Z,94.50
2023-01-30T00:07:33.369Z,94.60
2023-01-30T00:10:17.432Z,94.84
2023-01-30T00:12:44.200Z,94.74
2023-01-30T00:15:10.814Z,94.75
2023-01-30T00:17:37.211Z,95.03
2023-01-30T00:20:18.510Z,94.92
2023-01-30T00:23:01.022Z,95.51
2023-01-30T00:25:29.135Z,95.14
2023-01-30T00:28:02.170Z,94.80
2023-01-30T00:30:43.201Z,94.92
2023-01-30T00:33:10.518Z,95.20
2023-01-30T00:35:36.927Z,95.26
2023-01-30T00:38:03.427Z,95.57
2023-01-30T00:41:01.250Z,95.52
2023-01-30T00:43:53.274Z,95.03
2023-01-30T00:46:52.610Z,95.60
2023-01-30T00:49:19.671Z,95.50
2023-01-30T00:51:46.340Z,95.25
2023-01-30T00:54:12.966Z,95.36
2023-01-30T00:56:39.384Z,95.73
2023-01-30T00:59:05.822Z,95.51
2023-01-30T01:01:51.598Z,95.15
2023-01-30T01:04:18.194Z,95.47
2023-01-30T01:06:44.687Z,95.16
2023-01-30T01:09:23.434Z,95.43
2023-01-30T01:11:52.121Z,95.69
2023-01-30T01:14:18.605Z,95.37
2023-01-30T01:16:51.200Z,95.95
2023-01-30T01:19:28.878Z,95.95
2023-01-30T01:21:55.365Z,95.70
2023-01-30T01:24:25.936Z,96.38
2023-01-30T01:26:52.397Z,96.12
2023-01-30T01:29:25.104Z,96.32
2023-01-30T01:32:00.804Z,96.89
2023-01-30T01:34:30.730Z,96.55
2023-01-30T01:36:57.193Z,96.49
2023-01-30T01:39:23.758Z,96.62
2023-01-30T01:41:50.804Z,96.95
2023-01-30T01:44:17.677Z,96.87
2023-01-30T01:46:46.899Z,97.17
2023-01-30T01:49:33.758Z,97.12
2023-01-30T01:52:15.112Z,96.86
2023-01-30T01:54:50.225Z,97.37
2023-01-30T01:57:31.915Z,96.99
2023-01-30T02:00:06.726Z,97.62
2023-01-30T02:02:34.569Z,97.43
2023-01-30T02:05:02.937Z,97.62
2023-01-30T02:07:52.072Z,97.81
2023-01-30T02:10:49.813Z,97.39
2023-01-30T02:13:17.204Z,98.02
2023-01-30T02:15:44.103Z,97.76
2023-01-30T02:18:25.510Z,97.70
2023-01-30T02:21:27.472Z,97.61
2023-01-30T02:24:34.701Z,97.74
2023-01-30T02:27:10.832Z,98.09
2023-01-30T02:29:53.798Z,98.24
2023-01-30T02:32:25.554Z,98.18
2023-01-30T02:35:06.625Z,98.01
2023-01-30T02:38:09.495Z,98.27
2023-01-30T02:40:54.125Z,98.19
2023-01-30T02:43:37.952Z,98.60
2023-01-30T02:46:32.281Z,98.51
2023-01-30T02:49:11.518Z,98.80
2023-01-30T02:51:40.607Z,98.45
2023-01-30T02:54:20.265Z,98.93
2023-01-30T02:56:53.681Z,98.50
2023-01-30T02:59:31.827Z,98.96
2023-01-30T03:02:30.551Z,99.02
2023-01-30T03:05:45.107Z,99.14
2023-01-30T03:08:11.418Z,99.04
2023-01-30T03:10:55.808Z,99.14
2023-01-30T03:13:28.300Z,99.26
2023-01-30T03:16:12.016Z,99.33
2023-01-30T03:18:42.264Z,98.90
2023-01-30T03:21:12.555Z,99.39
2023-01-30T03:23:39.027Z,99.37
2023-01-30T03:26:18.173Z,99.21
2023-01-30T03:28:54.010Z,99.42
2023-01-30T03:31:20.587Z,99.49
2023-01-30T03:33:47.225Z,99.30
2023-01-30T03:36:14.040Z,99.49
2023-01-30T03:38:40.547Z,99.51
2023-01-30T03:41:06.934Z,99.54
2023-01-30T03:43:46.422Z,99.53
2023-01-30T03:46:14.919Z,99.52
2023-01-30T03:48:41.541Z,99.41
2023-01-30T03:51:21.097Z,99.27
2023-01-30T03:53:47.702Z,99.66
2023-01-30T03:56:14.225Z,99.39
2023-01-30T03:58:43.845Z,99.33
2023-01-30T04:01:20.826Z,99.40
2023-01-30T04:03:47.421Z,99.20
2023-01-30T04:06:15.858Z,99.15
2023-01-30T04:08:42.347Z,99.31
2023-01-30T04:11:08.756Z,99.47
2023-01-30T04:13:35.130Z,98.77
2023-01-30T04:16:22.376Z,98.92
2023-01-30T04:18:49.198Z,99.30
2023-01-30T04:21:20.436Z,99.00
2023-01-30T04:23:46.832Z,99.20
2023-01-30T04:26:16.211Z,98.94
2023-01-30T04:28:44.597Z,99.00
2023-01-30T04:31:13.274Z,99.02
2023-01-30T04:33:43.912Z,99.22
2023-01-30T04:36:17.635Z,99.04
2023-01-30T04:38:44.189Z,98.76
2023-01-30T04:41:10.687Z,99.19
2023-01-30T04:43:37.165Z,99.04
2023-01-30T04:46:03.808Z,98.58
2023-01-30T04:48:35.364Z,98.64
2023-01-30T04:51:11.225Z,98.90
2023-01-30T04:53:37.717Z,98.58
2023-01-30T04:56:04.746Z,98.23
2023-01-30T04:58:31.158Z,98.04
2023-01-30T05:01:31.588Z,98.29
2023-01-30T05:03:57.976Z,98.20
2023-01-30T05:06:24.428Z,97.91
2023-01-30T05:08:52.553Z,97.50
2023-01-30T05:11:20.011Z,97.25
2023-01-30T05:13:47.014Z,97.37
2023-01-30T05:16:14.832Z,97.04
2023-01-30T05:18:42.217Z,97.19
2023-01-30T05:21:30.384Z,96.72
2023-01-30T05:23:57.589Z,96.32
2023-01-30T05:26:35.028Z,96.12
2023-01-30T05:29:02.604Z,95.94
2023-01-30T05:31:35.272Z,95.75
2023-01-30T05:34:01.745Z,95.60
2023-01-30T05:36:44.599Z,95.22
2023-01-30T05:39:10.996Z,95.00
2023-01-30T05:41:41.337Z,94.69
2023-01-30T05:44:11.648Z,93.73
2023-01-30T05:46:38.856Z,93.42
2023-01-30T05:49:05.478Z,93.09
2023-01-30T05:51:48.509Z,92.81
2023-01-30T05:54:16.463Z,92.96
2023-01-30T05:57:06.607Z,92.45
2023-01-30T05:59:37.161Z,92.40
2023-01-30T06:02:04.591Z,92.18
2023-01-30T06:04:30.985Z,92.32
2023-01-30T06:06:57.553Z,92.50
2023-01-30T06:09:23.925Z,91.79
2023-01-30T06:11:52.465Z,92.08
2023-01-30T06:14:48.519Z,91.96
2023-01-30T06:17:14.906Z,91.31
2023-01-30T06:19:51.524Z,91.44
2023-01-30T06:22:18.099Z,91.19
2023-01-30T06:24:51.550Z,90.80
2023-01-30T06:27:19.375Z,90.13
2023-01-30T06:29:47.851Z,90.15
2023-01-30T06:32:14.983Z,90.73
2023-01-30T06:34:42.488Z,89.75
2023-01-30T06:37:10.027Z,90.19
2023-01-30T06:39:41.608Z,90.30
2023-01-30T06:42:08.183Z,89.87
2023-01-30T06:44:35.869Z,89.78
2023-01-30T06:47:09.490Z,89.84
2023-01-30T06:49:35.892Z,90.26
2023-01-30T06:52:02.345Z,89.71
2023-01-30T06:55:03.850Z,89.85
2023-01-30T06:57:31.389Z,89.49
2023-01-30T07:00:07.114Z,89.08
2023-01-30T07:02:47.719Z,88.92
2023-01-30T07:05:14.353Z,88.97
2023-01-30T07:07:41.861Z,89.17
2023-01-30T07:10:09.561Z,89.04
2023-01-30T07:12:38.348Z,88.99
2023-01-30T07:15:06.603Z,88.58
2023-01-30T07:17:33.143Z,88.59
2023-01-30T07:20:02.783Z,88.53
2023-01-30T07:22:29.231Z,88.18
2023-01-30T07:25:02.778Z,87.61
2023-01-30T07:27:29.288Z,87.86
2023-01-30T07:30:15.538Z,87.69
2023-01-30T07:32:41.941Z,87.31
2023-01-30T07:35:26.782Z,87.42
2023-01-30T07:37:53.344Z,87.44
2023-01-30T07:40:21.708Z,87.01
2023-01-30T07:43:02.122Z,86.84
2023-01-30T07:45:41.814Z,86.59
2023-01-30T07:48:10.433Z,86.95
2023-01-30T07:50:36.884Z,87.02
2023-01-30T07:53:13.558Z,86.35
2023-01-30T07:55:43.099Z,86.65
2023-01-30T07:58:22.766Z,86.32
2023-01-30T08:00:49.249Z,86.76
2023-01-30T08:03:16.934Z,86.74
2023-01-30T08:05:46.661Z,86.11
2023-01-30T08:08:13.051Z,86.11
2023-01-30T08:10:39.405Z,86.36
2023-01-30T08:13:05.816Z,85.76
2023-01-30T08:15:33.495Z,86.26
2023-01-30T08:17:59.980Z,85.88
2023-01-30T08:20:28.031Z,85.32
2023-01-30T08:22:55.888Z,85.75
2023-01-30T08:25:22.380Z,86.31
2023-01-30T08:27:48.841Z,85.32
2023-01-30T08:30:15.339Z,85.81
2023-01-30T08:32:41.701Z,85.48
2023-01-30T08:35:09.024Z,84.90
2023-01-30T08:37:35.388Z,84.94
2023-01-30T08:40:01.931Z,84.96
2023-01-30T08:42:28.434Z,84.48
2023-01-30T08:44:54.859Z,84.62
2023-01-30T08:47:21.216Z,84.60
2023-01-30T08:49:47.575Z,83.94
2023-01-30T08:52:13.950Z,84.33
2023-01-30T08:54:40.355Z,84.13
2023-01-30T08:57:06.747Z,84.01
2023-01-30T08:59:33.113Z,84.16
2023-01-30T09:01:59.576Z,83.71
2023-01-30T09:04:26.506Z,83.95
2023-01-30T09:06:52.995Z,84.13
2023-01-30T09:09:19.394Z,83.90
2023-01-30T09:11:48.016Z,83.81
2023-01-30T09:14:19.746Z,84.21
2023-01-30T09:16:55.881Z,83.75
2023-01-30T09:19:27.034Z,83.52
2023-01-30T09:21:54.805Z,83.17
2023-01-30T09:24:26.788Z,83.45
2023-01-30T09:26:58.862Z,83.24
2023-01-30T09:29:28.945Z,83.02
2023-01-30T09:31:56.631Z,82.86
2023-01-30T09:34:29.650Z,82.96
2023-01-30T09:37:04.832Z,83.55
2023-01-30T09:39:31.796Z,83.16
2023-01-30T09:42:16.703Z,82.68
2023-01-30T09:44:52.009Z,83.13
2023-01-30T09:47:22.662Z,82.47
2023-01-30T09:50:07.708Z,83.14
2023-01-30T09:52:57.665Z,82.71
2023-01-30T09:55:28.014Z,82.05
2023-01-30T09:57:56.400Z,81.82
2023-01-30T10:00:37.904Z,82.49
2023-01-30T10:03:12.727Z,82.09
2023-01-30T10:05:47.384Z,81.78
2023-01-30T10:08:21.684Z,81.92
2023-01-30T10:11:09.006Z,82.10
2023-01-30T10:14:02.416Z,82.11
2023-01-30T10:16:39.142Z,82.04
2023-01-30T10:19:33.611Z,82.34
2023-01-30T10:22:24.768Z,82.10
2023-01-30T10:25:27.787Z,81.37
2023-01-30T10:28:10.140Z,81.46
2023-01-30T10:30:36.828Z,81.22
2023-01-30T10:33:08.248Z,81.27
2023-01-30T10:35:39.202Z,81.36
2023-01-30T10:38:30.181Z,81.34
2023-01-30T10:41:20.873Z,81.33
2023-01-30T10:43:57.634Z,80.95
2023-01-30T10:46:35.092Z,80.94
2023-01-30T10:49:19.775Z,81.32
2023-01-30T10:52:13.290Z,80.94
2023-01-30T10:54:59.979Z,80.71
2023-01-30T10:57:38.539Z,80.26
2023-01-30T11:00:10.619Z,81.04
2023-01-30T11:02:53.244Z,80.35
2023-01-30T11:05:25.651Z,81.23
2023-01-30T11:07:52.132Z,79.67
2023-01-30T11:10:25.689Z,78.59
2023-01-30T11:13:00.558Z,78.62
2023-01-30T11:15:55.892Z,78.36
2023-01-30T11:19:11.319Z,77.93
2023-01-30T11:21:42.349Z,78.00
2023-01-30T11:24:17.167Z,78.18
2023-01-30T11:26:47.726Z,77.95
2023-01-30T11:29:33.142Z,78.06
2023-01-30T11:32:04.977Z,76.80
2023-01-30T11:34:31.777Z,76.62
2023-01-30T11:37:33.861Z,77.54
2023-01-30T11:40:21.027Z,77.64
2023-01-30T11:42:50.532Z,76.63
2023-01-30T11:45:18.850Z,76.37
2023-01-30T11:47:57.790Z,75.98
2023-01-30T11:50:49.633Z,75.83
2023-01-30T11:53:39.295Z,76.24
2023-01-30T11:56:14.114Z,76.30
2023-01-30T11:58:41.888Z,75.34
2023-01-30T12:01:11.213Z,75.92
2023-01-30T12:03:48.354Z,75.56
2023-01-30T12:06:30.535Z,75.47
2023-01-30T12:08:57.392Z,74.94
2023-01-30T12:11:30.457Z,75.51
2023-01-30T12:14:14.850Z,75.73
2023-01-30T12:16:53.771Z,75.57
2023-01-30T12:19:39.998Z,75.26
2023-01-30T12:22:44.855Z,75.51
2023-01-30T12:25:22.280Z,75.69
2023-01-30T12:28:25.435Z,74.83
2023-01-30T12:30:58.072Z,75.30
2023-01-30T12:33:31.023Z,75.11
2023-01-30T12:36:10.961Z,75.11
2023-01-30T12:38:44.509Z,74.58
2023-01-30T12:41:47.495Z,74.36
2023-01-30T12:44:31.675Z,74.96
2023-01-30T12:47:04.048Z,75.23
2023-01-30T12:50:02.995Z,75.12
2023-01-30T12:52:54.581Z,75.22
2023-01-30T12:55:23.964Z,75.38
2023-01-30T12:58:03.014Z,74.17
2023-01-30T13:00:45.964Z,73.40
2023-01-30T13:03:21.325Z,74.22
2023-01-30T13:05:57.644Z,73.61
2023-01-30T13:08:38.852Z,74.18
2023-01-30T13:11:16.073Z,74.16
2023-01-30T13:13:56.676Z,74.00
2023-01-30T13:16:38.599Z,73.96
2023-01-30T13:19:21.083Z,73.81
2023-01-30T13:22:05.771Z,73.61
2023-01-30T13:24:43.308Z,73.96
2023-01-30T13:27:17.034Z,74.00
2023-01-30T13:29:44.900Z,73.75
2023-01-30T13:32:29.418Z,73.43
2023-01-30T13:34:59.274Z,73.69
2023-01-30T13:37:25.842Z,73.37
2023-01-30T13:40:17.965Z,73.90
2023-01-30T13:42:56.625Z,73.73
2023-01-30T13:45:28.078Z,73.60
2023-01-30T13:48:20.867Z,74.16
2023-01-30T13:51:26.238Z,73.94
2023-01-30T13:54:03.194Z,73.68
2023-01-30T13:56:53.210Z,73.44
2023-01-30T13:59:57.034Z,73.60
2023-01-30T14:02:24.736Z,73.79
2023-01-30T14:04:56.167Z,73.62
2023-01-30T14:07:28.396Z,74.05
2023-01-30T14:10:10.152Z,73.36
2023-01-30T14:12:47.741Z,73.89
2023-01-30T14:15:14.519Z,73.42
2023-01-30T14:18:07.031Z,73.09
2023-01-30T14:20:40.797Z,73.46
2023-01-30T14:23:31.053Z,74.39
2023-01-30T14:25:58.225Z,73.82
2023-01-30T14:28:25.131Z,73.30
2023-01-30T14:30:59.787Z,74.04
2023-01-30T14:33:26.157Z,74.04
2023-01-30T14:35:58.630Z,73.50
2023-01-30T14:38:26.886Z,73.67
2023-01-30T14:40:59.529Z,73.98
2023-01-30T14:43:25.875Z,74.19
2023-01-30T14:46:03.251Z,74.44
2023-01-30T14:48:32.181Z,74.37
2023-01-30T14:51:12.028Z,74.22
2023-01-30T14:53:52.252Z,74.27
2023-01-30T14:56:23.038Z,74.16
2023-01-30T14:59:03.625Z,74.35
2023-01-30T15:02:00.523Z,74.78
2023-01-30T15:04:33.195Z,74.18
2023-01-30T15:07:05.436Z,74.26
2023-01-30T15:09:32.584Z,73.84
2023-01-30T15:12:20.560Z,74.76
2023-01-30T15:15:31.912Z,74.57
2023-01-30T15:18:07.830Z,74.18
2023-01-30T15:21:00.153Z,74.48
2023-01-30T15:23:41.692Z,74.41
2023-01-30T15:26:24.964Z,74.63
2023-01-30T15:29:09.811Z,74.16
2023-01-30T15:31:36.206Z,74.15
2023-01-30T15:34:02.661Z,74.38
2023-01-30T15:36:32.554Z,74.36
2023-01-30T15:39:05.577Z,74.07
2023-01-30T15:41:40.429Z,74.05
2023-01-30T15:44:14.383Z,74.23
2023-01-30T15:47:02.132Z,74.64
2023-01-30T15:49:37.781Z,74.51
2023-01-30T15:52:06.970Z,74.47
2023-01-30T15:54:33.394Z,75.30
2023-01-30T15:57:00.617Z,74.50
2023-01-30T15:59:36.072Z,74.97
2023-01-30T16:02:16.728Z,75.20
2023-01-30T16:04:43.157Z,75.00
2023-01-30T16:07:22.457Z,75.63
2023-01-30T16:10:06.800Z,75.40
2023-01-30T16:12:34.195Z,75.81
2023-01-30T16:15:17.065Z,75.99
2023-01-30T16:17:55.422Z,77.61
2023-01-30T16:20:22.025Z,77.25
2023-01-30T16:22:48.638Z,76.66
2023-01-30T16:25:22.512Z,77.93
2023-01-30T16:27:51.609Z,78.20
2023-01-30T16:30:29.423Z,78.77
2023-01-30T16:32:56.777Z,78.96
2023-01-30T16:35:26.886Z,78.87
2023-01-30T16:37:55.970Z,78.68
2023-01-30T16:40:33.098Z,79.20
2023-01-30T16:43:15.453Z,78.71
2023-01-30T16:45:54.312Z,79.44
2023-01-30T16:48:34.648Z,79.61
2023-01-30T16:51:01.277Z,79.28
2023-01-30T16:53:37.154Z,79.15
2023-01-30T16:56:09.717Z,79.14
2023-01-30T16:58:38.438Z,78.83
2023-01-30T17:01:08.853Z,78.98
2023-01-30T17:03:37.009Z,79.13
2023-01-30T17:06:33.183Z,79.43
2023-01-30T17:08:59.832Z,79.28
2023-01-30T17:11:40.393Z,79.28
2023-01-30T17:14:27.073Z,79.55
2023-01-30T17:17:02.045Z,79.69
2023-01-30T17:19:28.460Z,79.78
2023-01-30T17:21:57.089Z,79.93
2023-01-30T17:24:25.402Z,79.77
2023-01-30T17:26:59.393Z,80.41
2023-01-30T17:29:41.843Z,80.54
2023-01-30T17:32:14.996Z,80.49
2023-01-30T17:34:41.713Z,81.00
2023-01-30T17:37:20.211Z,81.08
2023-01-30T17:39:47.332Z,80.94
2023-01-30T17:42:14.786Z,81.40
2023-01-30T17:44:41.594Z,81.53
2023-01-30T17:47:11.117Z,81.32
2023-01-30T17:49:37.670Z,81.79
2023-01-30T17:52:04.290Z,81.83
2023-01-30T17:54:30.676Z,81.98
2023-01-30T17:57:02.273Z,81.30
2023-01-30T17:59:28.725Z,81.35
2023-01-30T18:01:55.157Z,81.59
2023-01-30T18:04:21.551Z,81.41
2023-01-30T18:06:55.904Z,81.64
2023-01-30T18:09:24.186Z,81.08
2023-01-30T18:11:51.260Z,81.42
2023-01-30T18:14:18.000Z,80.96
2023-01-30T18:16:44.931Z,81.21
2023-01-30T18:19:13.819Z,81.08
2023-01-30T18:21:40.329Z,81.43
2023-01-30T18:24:07.536Z,81.29
2023-01-30T18:26:34.152Z,81.70
2023-01-30T18:29:00.685Z,82.17
2023-01-30T18:31:31.387Z,82.49
2023-01-30T18:33:58.118Z,81.93
2023-01-30T18:36:24.779Z,82.32
2023-01-30T18:38:51.758Z,82.22
2023-01-30T18:41:20.524Z,82.63
2023-01-30T18:43:48.563Z,82.52
2023-01-30T18:46:17.517Z,82.95
2023-01-30T18:48:46.086Z,83.52
2023-01-30T18:51:15.715Z,83.35
2023-01-30T18:53:43.131Z,83.14
2023-01-30T18:56:36.475Z,83.36
2023-01-30T18:59:05.154Z,84.10
2023-01-30T19:01:35.633Z,83.78
2023-01-30T19:04:04.066Z,83.70
2023-01-30T19:06:30.530Z,83.57
2023-01-30T19:08:58.023Z,83.58
2023-01-30T19:11:43.490Z,83.82
2023-01-30T19:14:10.436Z,83.60
2023-01-30T19:16:38.491Z,83.80
2023-01-30T19:19:06.479Z,83.48
2023-01-30T19:21:33.747Z,83.23
2023-01-30T19:24:06.495Z,83.10
2023-01-30T19:26:33.330Z,83.70
2023-01-30T19:28:59.753Z,83.44
2023-01-30T19:31:26.287Z,83.65
2023-01-30T19:33:55.197Z,84.08
2023-01-30T19:36:23.325Z,84.56
2023-01-30T19:38:49.883Z,83.78
2023-01-30T19:41:31.430Z,84.17
2023-01-30T19:44:01.210Z,84.08
2023-01-30T19:46:29.019Z,84.35
2023-01-30T19:48:56.093Z,84.25
2023-01-30T19:51:28.026Z,83.89
2023-01-30T19:54:05.081Z,84.48
2023-01-30T19:56:32.637Z,84.40
2023-01-30T19:59:00.415Z,84.69
2023-01-30T20:01:29.766Z,84.83
2023-01-30T20:03:57.116Z,84.59
2023-01-30T20:06:26.604Z,84.88
2023-01-30T20:08:55.765Z,84.59
2023-01-30T20:11:22.171Z,84.83
2023-01-30T20:13:49.449Z,85.08
2023-01-30T20:16:21.268Z,85.54
2023-01-30T20:18:59.849Z,85.90
2023-01-30T20:21:27.092Z,85.11
2023-01-30T20:23:53.951Z,85.28
2023-01-30T20:26:23.308Z,85.91
2023-01-30T20:28:50.504Z,85.32
2023-01-30T20:31:19.564Z,85.89
2023-01-30T20:33:46.932Z,85.97
2023-01-30T20:36:16.481Z,85.83
2023-01-30T20:38:43.752Z,85.61
2023-01-30T20:41:14.797Z,85.42
2023-01-30T20:43:46.679Z,85.93
2023-01-30T20:46:18.386Z,85.97
2023-01-30T20:48:45.579Z,85.82
2023-01-30T20:51:17.470Z,85.84
2023-01-30T20:53:49.900Z,86.17
2023-01-30T20:56:16.343Z,85.96
2023-01-30T20:58:42.815Z,85.62
2023-01-30T21:01:10.613Z,85.76
2023-01-30T21:03:38.278Z,85.80
2023-01-30T21:06:05.300Z,85.78
2023-01-30T21:08:31.710Z,85.75
2023-01-30T21:11:10.876Z,85.82
2023-01-30T21:13:38.337Z,85.92
2023-01-30T21:16:10.455Z,85.74
2023-01-30T21:18:39.333Z,85.60
2023-01-30T21:21:15.800Z,86.02
2023-01-30T21:23:43.314Z,85.88
2023-01-30T21:26:11.330Z,85.67
2023-01-30T21:28:37.986Z,85.72
2023-01-30T21:31:17.271Z,85.79
2023-01-30T21:33:43.903Z,86.19
2023-01-30T21:36:11.759Z,86.18
2023-01-30T21:38:57.751Z,86.07
2023-01-30T21:41:45.799Z,86.51
2023-01-30T21:44:13.181Z,86.21
2023-01-30T21:46:45.285Z,86.96
2023-01-30T21:49:12.562Z,86.68
2023-01-30T21:51:43.646Z,86.63
2023-01-30T21:54:10.069Z,86.84
2023-01-30T21:56:36.873Z,86.70
2023-01-30T21:59:05.475Z,87.20
2023-01-30T22:01:33.101Z,87.53
2023-01-30T22:04:00.748Z,87.62
2023-01-30T22:06:27.616Z,87.76
2023-01-30T22:08:55.504Z,88.11
2023-01-30T22:11:21.968Z,87.90
2023-01-30T22:13:48.701Z,88.22
2023-01-30T22:16:17.698Z,88.01
2023-01-30T22:18:56.353Z,88.52
2023-01-30T22:21:25.216Z,88.24
2023-01-30T22:23:53.183Z,88.38
2023-01-30T22:26:21.285Z,88.06
2023-01-30T22:28:48.105Z,88.26
2023-01-30T22:31:19.698Z,87.65
2023-01-30T22:33:47.528Z,88.07
2023-01-30T22:36:15.014Z,87.97
2023-01-30T22:38:50.587Z,87.67
2023-01-30T22:41:20.977Z,88.06
2023-01-30T22:43:55.336Z,87.93
2023-01-30T22:46:25.930Z,87.90
2023-01-30T22:48:53.257Z,87.33
2023-01-30T22:51:26.087Z,87.75
2023-01-30T22:53:58.774Z,87.65
2023-01-30T22:56:41.029Z,87.79
2023-01-30T22:59:13.519Z,87.88
2023-01-30T23:01:42.554Z,88.16
2023-01-30T23:04:19.862Z,88.07
2023-01-30T23:06:52.206Z,87.41
2023-01-30T23:09:31.669Z,87.87
2023-01-30T23:12:16.698Z,88.05
2023-01-30T23:14:43.515Z,87.82
2023-01-30T23:17:32.742Z,87.78
2023-01-30T23:19:59.173Z,88.17
2023-01-30T23:22:30.701Z,87.73
2023-01-30T23:24:57.137Z,88.09
2023-01-30T23:27:24.387Z,88.09
2023-01-30T23:29:54.979Z,88.09
2023-01-30T23:32:23.492Z,88.36
2023-01-30T23:34:49.906Z,87.93
2023-01-30T23:37:16.567Z,88.38
2023-01-30T23:39:43.119Z,87.89
2023-01-30T23:42:20.851Z,88.17
2023-01-30T23:44:47.234Z,87.96
2023-01-30T23:47:16.614Z,88.12
2023-01-30T23:49:43.014Z,87.93
2023-01-30T23:52:10.301Z,88.23
2023-01-30T23:54:36.724Z,88.15
2023-01-30T23:57:03.125Z,88.41
2023-01-30T23:59:34.965Z,88.15
